首页
METAR-TAF:

METAR-TAF

机场 :

Pellston Regional Airport of Emmet County

Pellston, 密歇根州, 美国

纬度: 45-34-15N, 经度: 084-47-48W, 海拔: 220米

当前天气观测

该预报发布于49分钟前的16:54 UTC
风速6节,风向南转西南
温度 2°C
湿度 93%
气压 1020 hPa
能見度: 8.0公里
阴天层高于2500英尺
轻雾

METAR: KPLN 201654Z AUTO 20006KT 5SM BR OVC025 02/01 A3013 RMK AO2 SLP212 T00220011

时间: 12:43 (17:43 UTC)

预报

该预报发布于23分钟前的17:20 UTC
预报有效从20日的 18点(UTC)到 21日的 18点(UTC)
风速5节,风向
能見度: 8.0公里
阴天层高于2500英尺
轻雾
从 21日的 1200点(UTC)
风速11节,风向南转南东,有时为20节阵风
能見度: 8.0公里
阴天层高于2200英尺
小雨, 雪
从 21日的 1500点(UTC)
风速12节,风向南转南东,有时为21节阵风
能見度: 3.2公里
阴天层高于1500英尺
小雨, 轻雾

TAF: KPLN 201720Z 2018/2118 19005KT 5SM BR OVC025 FM211200 15011G20KT 5SM -RASN OVC022 WS020/20040KT FM211500 16012G21KT 2SM -RA BR OVC015 WS020/20045KT

超过4000个机场的气象观测和天气预报(METAR&TAF报告)。

可查询的气象台以黄色和红色小点在地图上表示。

将鼠标移到小点上方,可查看气象台名称。

然后点击查看天气观测和预报。

如需切换地图:点击带黑十字的绿色按钮放大地图;点击带横线的绿色按钮缩小地图;或者点击绿色箭头查看邻近地区的地图。


METAR-TAF: